Time;durP1;ratioP1;P1;durP2;ratioP2;P2;SDS_P1;SDS_P2;PMS_P1;PMS_P2;Temp;Humidity;BMP_temperature;BMP_pressure;BME280_temperature;BME280_humidity;BME280_pressure;Samples;Min_cycle;Max_cycle;Signal;HPM_P1;HPM_P2
2022/02/07 00:00:42;;;;;;;3.00;1.13;;;3.80;99.90;;;;;;5064903;28;20526;-80
2022/02/07 00:03:36;;;;;;;5.27;1.07;;;3.70;99.90;;;;;;5071743;28;20480;-82
2022/02/07 00:06:43;;;;;;;5.77;1.50;;;3.60;99.90;;;;;;5040680;28;20459;-79
2022/02/07 00:09:34;;;;;;;2.93;1.37;;;3.40;99.90;;;;;;5053099;28;20444;-80
2022/02/07 00:12:05;;;;;;;9.23;1.60;;;3.30;99.90;;;;;;5043740;28;20476;-81
2022/02/07 00:14:32;;;;;;;3.17;1.10;;;3.10;99.90;;;;;;5087841;22;20997;-80
2022/02/07 00:17:00;;;;;;;3.17;1.47;;;3.10;99.90;;;;;;5070546;28;20886;-80
2022/02/07 00:19:28;;;;;;;4.30;1.10;;;3.00;99.90;;;;;;5070959;28;20482;-80
2022/02/07 00:21:57;;;;;;;4.07;1.10;;;3.00;99.90;;;;;;5071529;28;20955;-80
2022/02/07 00:24:24;;;;;;;7.23;1.17;;;3.00;99.90;;;;;;5074896;28;20570;-80
2022/02/07 00:26:51;;;;;;;2.87;1.13;;;3.00;99.90;;;;;;5060742;28;20490;-80
2022/02/07 00:29:18;;;;;;;6.63;1.30;;;3.00;99.90;;;;;;5060342;28;20439;-80
2022/02/07 00:31:45;;;;;;;8.40;2.23;;;3.00;99.90;;;;;;5075058;28;20455;-81
2022/02/07 00:34:13;;;;;;;6.07;2.67;;;3.00;99.90;;;;;;5074409;28;20656;-80
2022/02/07 00:36:40;;;;;;;9.93;2.93;;;3.10;99.90;;;;;;5075052;28;20466;-80
2022/02/07 00:39:11;;;;;;;5.47;1.80;;;3.00;99.90;;;;;;5076412;28;20514;-80
2022/02/07 00:41:44;;;;;;;7.43;2.30;;;3.00;99.90;;;;;;5074207;28;21090;-80
2022/02/07 00:44:14;;;;;;;7.77;1.77;;;3.00;99.90;;;;;;5058664;28;20922;-79
2022/02/07 00:46:48;;;;;;;6.70;1.60;;;3.00;99.90;;;;;;5073732;28;20462;-80
2022/02/07 00:49:16;;;;;;;7.40;1.97;;;3.00;99.90;;;;;;5079135;28;20454;-80
2022/02/07 00:51:43;;;;;;;7.60;1.70;;;2.90;99.90;;;;;;5078629;28;20469;-80
2022/02/07 00:54:10;;;;;;;7.77;1.77;;;2.90;99.90;;;;;;5077511;28;20478;-80
2022/02/07 00:56:37;;;;;;;4.83;1.57;;;2.90;99.90;;;;;;5077911;28;20455;-80
2022/02/07 00:59:04;;;;;;;5.67;1.10;;;2.90;99.90;;;;;;5077642;28;20451;-80
2022/02/07 01:01:31;;;;;;;1.90;0.90;;;2.90;99.90;;;;;;5078947;28;20800;-80
2022/02/07 01:03:58;;;;;;;4.57;1.53;;;3.00;99.90;;;;;;5070793;28;20475;-80
2022/02/07 01:06:26;;;;;;;5.43;1.00;;;2.90;99.90;;;;;;5058687;28;20543;-79
2022/02/07 01:09:08;;;;;;;4.93;2.03;;;2.90;99.90;;;;;;5064083;28;20458;-80
2022/02/07 01:11:48;;;;;;;3.37;1.40;;;2.90;99.90;;;;;;5079221;28;20455;-79
2022/02/07 01:14:26;;;;;;;2.73;1.03;;;2.90;99.90;;;;;;5071203;28;20475;-80
2022/02/07 01:50:21;;;;;;;5.67;1.97;;;3.60;99.90;;;;;;5056169;28;20432;-79
2022/02/07 01:52:59;;;;;;;7.20;1.50;;;3.70;99.90;;;;;;5065215;28;20534;-78
2022/02/07 01:55:35;;;;;;;16.33;3.20;;;3.80;99.90;;;;;;5071515;28;20540;-79
2022/02/07 01:58:03;;;;;;;14.77;3.10;;;3.90;99.90;;;;;;5059957;28;20462;-79
2022/02/07 02:00:30;;;;;;;8.20;2.00;;;3.90;99.90;;;;;;5077527;28;20486;-79
2022/02/07 02:02:57;;;;;;;9.60;2.90;;;3.90;99.90;;;;;;5074287;28;20549;-78
2022/02/07 02:05:24;;;;;;;10.43;2.17;;;3.90;99.90;;;;;;5075328;28;20482;-79
2022/02/07 02:07:51;;;;;;;8.67;1.90;;;3.70;99.90;;;;;;5077200;28;20470;-79
2022/02/07 02:10:18;;;;;;;10.83;2.23;;;3.60;99.90;;;;;;5076165;28;20543;-79
2022/02/07 02:12:56;;;;;;;7.90;2.37;;;3.50;99.90;;;;;;5075958;28;20534;-78
2022/02/07 02:15:34;;;;;;;10.20;2.23;;;3.70;99.90;;;;;;5056252;28;20490;-79
2022/02/07 02:18:34;;;;;;;15.07;2.53;;;3.80;99.90;;;;;;5058969;28;20529;-79
2022/02/07 02:35:16;;;;;;;8.13;1.57;;;4.10;99.90;;;;;;5068346;28;20531;-79
2022/02/07 02:37:48;;;;;;;6.17;1.40;;;4.10;99.90;;;;;;5066726;28;20455;-79
2022/02/07 02:45:45;;;;;;;6.50;1.93;;;4.20;99.90;;;;;;5058452;28;20447;-79
2022/02/07 02:48:18;;;;;;;9.00;2.00;;;4.20;99.90;;;;;;5076934;28;20836;-78
2022/02/07 02:50:49;;;;;;;3.93;1.70;;;4.30;99.90;;;;;;5075839;28;20513;-79
2022/02/07 02:53:17;;;;;;;12.13;1.70;;;4.40;99.90;;;;;;5076179;28;20439;-79
2022/02/07 02:55:47;;;;;;;9.80;1.50;;;4.40;99.90;;;;;;5075426;28;20471;-79
2022/02/07 02:58:18;;;;;;;5.57;1.63;;;4.50;99.90;;;;;;5076771;28;20447;-80
2022/02/07 03:00:46;;;;;;;7.60;1.70;;;4.50;99.90;;;;;;5074563;28;20836;-80
2022/02/07 03:03:13;;;;;;;8.30;1.73;;;4.50;99.90;;;;;;5076135;28;20451;-80
2022/02/07 03:05:43;;;;;;;5.63;1.60;;;4.50;99.90;;;;;;5072030;28;20482;-80
2022/02/07 03:08:10;;;;;;;13.60;2.73;;;4.50;99.90;;;;;;5056772;28;20453;-80
2022/02/07 03:10:46;;;;;;;6.43;1.70;;;4.50;99.90;;;;;;5068592;28;20514;-80
2022/02/07 03:13:17;;;;;;;5.03;1.60;;;4.40;99.90;;;;;;5074908;28;20463;-79
2022/02/07 03:18:30;;;;;;;8.47;2.13;;;4.30;99.90;;;;;;5065742;28;20579;-80
2022/02/07 03:20:58;;;;;;;11.53;1.70;;;4.30;99.90;;;;;;5073434;28;20567;-80
2022/02/07 03:23:25;;;;;;;7.83;1.77;;;4.30;99.90;;;;;;5065607;28;20454;-79
2022/02/07 03:25:53;;;;;;;9.03;2.40;;;4.30;99.90;;;;;;5072551;28;20482;-80
2022/02/07 03:28:22;;;;;;;10.40;2.20;;;4.40;99.90;;;;;;5076249;28;20455;-78
2022/02/07 03:30:49;;;;;;;11.13;3.00;;;4.40;99.90;;;;;;5072458;28;20453;-80
2022/02/07 03:33:16;;;;;;;14.40;3.07;;;4.40;99.90;;;;;;5054787;28;20443;-79
2022/02/07 03:35:43;;;;;;;12.90;2.20;;;4.50;99.90;;;;;;5058789;28;20471;-80
2022/02/07 03:38:11;;;;;;;7.27;2.07;;;4.50;99.90;;;;;;5059759;28;20456;-79
2022/02/07 03:40:39;;;;;;;10.60;2.33;;;4.40;99.90;;;;;;5059245;28;20572;-80
2022/02/07 03:43:06;;;;;;;13.00;2.63;;;4.40;99.90;;;;;;5065207;28;20505;-80
2022/02/07 03:45:34;;;;;;;9.33;2.40;;;4.40;99.90;;;;;;5076576;28;20475;-80
2022/02/07 03:48:01;;;;;;;11.97;2.30;;;4.40;99.90;;;;;;5074982;28;20453;-79
2022/02/07 03:50:29;;;;;;;7.20;2.80;;;4.40;99.90;;;;;;5065905;28;20463;-80
2022/02/07 03:52:56;;;;;;;11.40;2.07;;;4.30;99.90;;;;;;5073599;28;20467;-80
2022/02/07 03:55:23;;;;;;;6.67;2.33;;;4.30;99.90;;;;;;5075343;28;20471;-80
2022/02/07 03:57:50;;;;;;;6.30;2.10;;;4.30;99.90;;;;;;5075069;28;20446;-80
2022/02/07 04:00:17;;;;;;;8.37;2.63;;;4.30;99.90;;;;;;5075678;28;20576;-80
2022/02/07 04:02:49;;;;;;;7.27;2.23;;;4.30;99.90;;;;;;5067551;28;20460;-79
2022/02/07 04:05:38;;;;;;;10.80;2.07;;;4.40;99.90;;;;;;5074682;28;20479;-79
2022/02/07 04:08:07;;;;;;;9.50;1.87;;;4.40;99.90;;;;;;5074979;28;20447;-80
2022/02/07 04:10:40;;;;;;;8.60;2.33;;;4.30;99.90;;;;;;5063786;28;20960;-79
2022/02/07 04:13:09;;;;;;;16.30;2.00;;;4.30;99.90;;;;;;5054961;28;20441;-78
2022/02/07 04:15:36;;;;;;;7.00;1.93;;;4.30;99.90;;;;;;5064336;28;20544;-79
2022/02/07 04:18:09;;;;;;;9.83;1.80;;;4.20;99.90;;;;;;5082044;28;20465;-78
2022/02/07 04:20:38;;;;;;;9.77;3.23;;;4.10;99.90;;;;;;5079596;28;20518;-79
2022/02/07 04:23:05;;;;;;;10.90;2.30;;;4.10;99.90;;;;;;5074250;28;20452;-79
2022/02/07 04:25:33;;;;;;;10.00;2.13;;;4.10;99.90;;;;;;5065841;28;20476;-79
2022/02/07 04:28:00;;;;;;;6.20;1.80;;;4.10;99.90;;;;;;5054493;28;20449;-79
2022/02/07 04:30:27;;;;;;;7.87;1.90;;;4.10;99.90;;;;;;5061933;28;20453;-79
2022/02/07 04:32:54;;;;;;;7.60;1.70;;;4.10;99.90;;;;;;5076570;28;20825;-80
2022/02/07 04:35:22;;;;;;;5.60;1.90;;;4.20;99.90;;;;;;5072081;28;20536;-79
2022/02/07 04:37:49;;;;;;;5.53;1.80;;;4.20;99.90;;;;;;5075000;28;20458;-80
2022/02/07 04:40:16;;;;;;;5.67;1.70;;;4.20;99.90;;;;;;5075246;28;20490;-80
2022/02/07 04:42:43;;;;;;;11.17;2.40;;;4.20;99.90;;;;;;5067581;28;20451;-79
2022/02/07 04:48:17;;;;;;;6.07;1.80;;;4.20;99.90;;;;;;5055460;28;21024;-80
2022/02/07 04:50:54;;;;;;;7.63;2.10;;;4.20;99.90;;;;;;5061824;28;20448;-80
2022/02/07 04:53:36;;;;;;;14.43;2.60;;;4.30;99.90;;;;;;5056193;28;20454;-80
2022/02/07 04:56:18;;;;;;;12.93;3.30;;;4.30;99.90;;;;;;5064752;28;20840;-80
2022/02/07 04:58:57;;;;;;;12.80;2.23;;;4.30;99.90;;;;;;5074520;28;20443;-80
2022/02/07 05:01:32;;;;;;;13.07;2.77;;;4.40;99.90;;;;;;5076405;28;20469;-80
2022/02/07 05:04:05;;;;;;;7.57;2.70;;;4.40;99.90;;;;;;5075497;28;20474;-80
2022/02/07 05:14:50;;;;;;;12.40;3.30;;;4.50;99.90;;;;;;5070557;28;20545;-79
2022/02/07 05:18:28;;;;;;;15.10;1.70;;;4.20;99.90;;;;;;5091521;27;20554;-82
2022/02/07 05:20:55;;;;;;;21.80;4.83;;;5.50;99.90;;;;;;5075257;28;20849;-82
2022/02/07 05:23:21;;;;;;;9.53;2.60;;;6.40;99.90;;;;;;5074352;28;20460;-83
2022/02/07 05:25:48;;;;;;;8.93;2.20;;;6.70;99.90;;;;;;5073344;28;20481;-84
2022/02/07 05:28:15;;;;;;;13.67;2.70;;;6.20;99.90;;;;;;5071981;28;20570;-84
2022/02/07 05:30:42;;;;;;;12.70;2.50;;;5.60;99.90;;;;;;5073905;28;20466;-84
2022/02/07 05:33:09;;;;;;;12.40;3.10;;;5.30;99.90;;;;;;5072448;28;20899;-83
2022/02/07 05:35:37;;;;;;;10.40;3.30;;;5.00;99.90;;;;;;5072945;28;20473;-84
2022/02/07 05:38:06;;;;;;;16.20;3.30;;;4.90;99.90;;;;;;5052398;28;21032;-84
2022/02/07 05:40:39;;;;;;;13.50;2.67;;;4.80;99.90;;;;;;5053259;28;20484;-84
2022/02/07 05:43:07;;;;;;;14.77;2.53;;;4.70;99.90;;;;;;5052798;28;20472;-83
2022/02/07 05:45:35;;;;;;;17.10;5.03;;;4.60;99.90;;;;;;5053510;28;20484;-84
2022/02/07 05:48:01;;;;;;;15.50;3.00;;;4.60;99.90;;;;;;5053275;28;20447;-84
2022/02/07 05:50:28;;;;;;;17.53;3.00;;;4.60;99.90;;;;;;5054154;28;20792;-84
2022/02/07 05:52:58;;;;;;;10.90;2.70;;;4.50;99.90;;;;;;5064260;28;20550;-83
2022/02/07 05:55:24;;;;;;;13.57;3.10;;;4.30;99.90;;;;;;5073617;28;21095;-83
2022/02/07 05:57:51;;;;;;;11.77;2.57;;;4.30;99.90;;;;;;5072911;28;20492;-83
2022/02/07 06:00:19;;;;;;;9.50;3.30;;;4.30;99.90;;;;;;5073547;28;20455;-83
2022/02/07 06:02:46;;;;;;;9.83;2.70;;;4.40;99.90;;;;;;5073939;28;20939;-84
2022/02/07 06:05:13;;;;;;;18.33;3.37;;;4.40;99.90;;;;;;5062148;28;20496;-83
2022/02/07 06:07:40;;;;;;;12.83;5.70;;;4.40;99.90;;;;;;5072312;28;20460;-83
2022/02/07 06:10:09;;;;;;;9.83;2.53;;;4.40;99.90;;;;;;5068890;28;21186;-83
2022/02/07 06:12:36;;;;;;;16.27;3.77;;;4.30;99.90;;;;;;5065325;28;20451;-83
2022/02/07 06:15:04;;;;;;;17.83;3.00;;;4.20;99.90;;;;;;5070566;28;20475;-84
2022/02/07 06:17:31;;;;;;;11.53;2.37;;;4.00;99.90;;;;;;5073242;28;20483;-83
2022/02/07 06:19:59;;;;;;;16.17;4.50;;;4.10;99.90;;;;;;5069816;28;20462;-83
2022/02/07 06:22:27;;;;;;;9.10;2.93;;;4.10;99.90;;;;;;5061484;28;21149;-83
2022/02/07 06:24:54;;;;;;;14.47;3.00;;;4.20;99.90;;;;;;5056719;28;20474;-83
2022/02/07 06:27:22;;;;;;;16.53;4.80;;;4.30;99.90;;;;;;5068878;28;20892;-83
2022/02/07 06:29:49;;;;;;;16.10;3.80;;;4.30;99.90;;;;;;5060257;28;20527;-83
2022/02/07 06:32:16;;;;;;;14.53;3.80;;;4.30;99.90;;;;;;5061267;28;20895;-83
2022/02/07 06:34:43;;;;;;;14.03;3.33;;;4.30;99.90;;;;;;5060948;28;20471;-83
2022/02/07 06:37:10;;;;;;;15.50;3.77;;;4.30;99.90;;;;;;5054685;28;20995;-82
2022/02/07 06:39:36;;;;;;;16.60;3.63;;;4.20;99.90;;;;;;5050833;28;20475;-82
2022/02/07 06:42:04;;;;;;;13.10;3.47;;;4.20;99.90;;;;;;5057439;28;20448;-83
2022/02/07 06:44:32;;;;;;;16.63;3.53;;;4.30;99.90;;;;;;5049839;28;20877;-81
2022/02/07 06:46:59;;;;;;;15.63;4.30;;;4.30;99.90;;;;;;5058922;28;20452;-83
2022/02/07 06:49:25;;;;;;;17.23;3.80;;;4.30;99.90;;;;;;5057867;28;20462;-82
2022/02/07 06:51:52;;;;;;;14.20;3.10;;;4.30;99.90;;;;;;5058248;28;20452;-83
2022/02/07 06:54:19;;;;;;;16.43;3.60;;;4.30;99.90;;;;;;5055469;28;20497;-83
2022/02/07 06:56:48;;;;;;;15.50;3.60;;;4.40;99.90;;;;;;5059067;28;20487;-83
2022/02/07 06:59:17;;;;;;;20.20;3.30;;;4.40;99.90;;;;;;5057190;28;20518;-83
2022/02/07 07:01:46;;;;;;;9.27;3.40;;;4.50;99.90;;;;;;5050147;28;20463;-82
2022/02/07 07:04:13;;;;;;;18.27;3.13;;;4.50;99.90;;;;;;5051604;28;21028;-83
2022/02/07 07:06:40;;;;;;;14.83;2.87;;;4.40;99.90;;;;;;5056817;28;20455;-83
2022/02/07 07:09:10;;;;;;;11.03;3.30;;;4.40;99.90;;;;;;5056482;28;20449;-83
2022/02/07 07:11:37;;;;;;;13.17;3.63;;;4.40;99.90;;;;;;5052739;28;20504;-83
2022/02/07 07:14:13;;;;;;;14.60;2.60;;;4.50;99.90;;;;;;5037115;28;20986;-85
2022/02/07 07:16:50;;;;;;;12.43;3.40;;;4.50;99.90;;;;;;5046782;28;20546;-85
2022/02/07 07:19:20;;;;;;;15.17;3.30;;;4.50;99.90;;;;;;5048819;28;20461;-84
2022/02/07 07:21:48;;;;;;;11.07;3.60;;;4.40;99.90;;;;;;5044544;28;20445;-83
2022/02/07 07:24:17;;;;;;;10.97;2.90;;;4.30;99.90;;;;;;5054987;28;20586;-83
2022/02/07 07:26:44;;;;;;;16.30;3.53;;;4.30;99.90;;;;;;5056021;28;20464;-83
2022/02/07 07:29:14;;;;;;;17.47;3.43;;;4.20;99.90;;;;;;5054573;28;20464;-83
2022/02/07 07:31:46;;;;;;;15.10;3.77;;;4.20;99.90;;;;;;5056751;28;20444;-84
2022/02/07 07:34:16;;;;;;;15.10;4.37;;;4.10;99.90;;;;;;5054624;28;20478;-84
2022/02/07 07:36:45;;;;;;;27.57;5.53;;;4.10;99.90;;;;;;5055828;28;20487;-82
2022/02/07 07:39:13;;;;;;;17.40;4.00;;;4.10;99.90;;;;;;5056787;28;20458;-84
2022/02/07 07:41:40;;;;;;;14.17;2.97;;;4.20;99.90;;;;;;5056349;28;20460;-84
2022/02/07 07:44:07;;;;;;;12.70;3.03;;;4.20;99.90;;;;;;5050956;28;20483;-83
2022/02/07 07:46:35;;;;;;;18.53;4.40;;;4.20;99.90;;;;;;5056466;28;20448;-82
2022/02/07 07:49:06;;;;;;;14.93;3.67;;;4.10;99.90;;;;;;5043216;28;20465;-84
2022/02/07 07:51:43;;;;;;;13.77;3.30;;;4.10;99.90;;;;;;5050662;28;20486;-83
2022/02/07 07:54:27;;;;;;;15.97;3.47;;;4.20;99.90;;;;;;5054646;28;20468;-84
2022/02/07 08:02:25;;;;;;;11.73;3.80;;;4.30;99.90;;;;;;5050812;28;20563;-85
2022/02/07 08:07:23;;;;;;;16.03;3.03;;;4.40;99.90;;;;;;5032463;28;20490;-87
2022/02/07 08:12:39;;;;;;;8.33;3.30;;;4.50;99.90;;;;;;5033895;28;20427;-84
2022/02/07 08:15:06;;;;;;;13.53;3.07;;;4.70;99.90;;;;;;5035271;28;20462;-84
2022/02/07 08:17:33;;;;;;;14.50;3.20;;;4.70;99.90;;;;;;5035692;28;20481;-84
2022/02/07 08:20:00;;;;;;;14.23;2.53;;;4.80;99.90;;;;;;5035922;28;20464;-84
2022/02/07 08:22:27;;;;;;;8.77;2.50;;;4.80;99.90;;;;;;5031880;28;20458;-83
2022/02/07 08:24:58;;;;;;;8.90;2.80;;;4.90;99.90;;;;;;5033442;28;20872;-85
2022/02/07 08:27:26;;;;;;;8.70;2.00;;;5.00;99.90;;;;;;5031483;28;20830;-84
2022/02/07 08:29:54;;;;;;;6.00;1.70;;;5.10;99.90;;;;;;5034496;28;20470;-85
2022/02/07 08:32:21;;;;;;;6.77;2.17;;;5.20;99.90;;;;;;5040346;28;20561;-84
2022/02/07 08:34:48;;;;;;;7.57;1.97;;;5.40;99.90;;;;;;5036698;28;20478;-84
2022/02/07 08:37:15;;;;;;;6.30;1.77;;;5.50;99.90;;;;;;5032288;28;20494;-83
2022/02/07 08:39:43;;;;;;;9.90;2.63;;;5.60;99.90;;;;;;5030074;28;20463;-84
2022/02/07 08:42:11;;;;;;;7.83;2.40;;;5.70;99.90;;;;;;5036135;28;20561;-84
2022/02/07 08:44:38;;;;;;;11.27;1.77;;;5.80;99.90;;;;;;5036643;28;20469;-85
2022/02/07 08:47:06;;;;;;;8.00;2.60;;;5.80;99.90;;;;;;5039632;28;20467;-85
2022/02/07 08:49:33;;;;;;;10.30;2.20;;;5.80;99.90;;;;;;5040135;28;20521;-83
2022/02/07 08:52:00;;;;;;;7.73;1.67;;;5.80;99.90;;;;;;5029234;28;20455;-84
2022/02/07 08:54:29;;;;;;;14.40;1.93;;;5.90;99.90;;;;;;5041460;28;20506;-83
2022/02/07 08:57:00;;;;;;;8.13;2.30;;;6.00;99.90;;;;;;5030198;28;20451;-82
2022/02/07 08:59:35;;;;;;;11.47;2.40;;;6.00;99.90;;;;;;5043449;28;20445;-82
2022/02/07 09:02:14;;;;;;;11.40;2.10;;;6.10;99.90;;;;;;5034681;28;20462;-83
2022/02/07 09:04:48;;;;;;;12.13;2.43;;;6.20;99.90;;;;;;5029926;28;20858;-83
2022/02/07 09:07:19;;;;;;;12.30;3.07;;;6.30;99.90;;;;;;5042400;28;20493;-83
2022/02/07 09:09:46;;;;;;;16.43;5.00;;;6.30;99.90;;;;;;5039969;28;20475;-83
2022/02/07 09:12:14;;;;;;;7.40;2.60;;;6.40;99.90;;;;;;5040988;28;20455;-85
2022/02/07 09:14:56;;;;;;;9.67;2.93;;;6.50;99.90;;;;;;5039017;28;20471;-85
2022/02/07 09:17:23;;;;;;;12.30;2.80;;;6.70;99.90;;;;;;5033754;28;20558;-84
2022/02/07 09:19:50;;;;;;;10.30;3.27;;;6.80;99.90;;;;;;5035020;28;20448;-83
2022/02/07 09:22:17;;;;;;;7.63;2.63;;;6.80;99.90;;;;;;5037584;28;21231;-83
2022/02/07 09:24:43;;;;;;;12.03;2.83;;;6.90;99.90;;;;;;5033379;28;20557;-82
2022/02/07 09:27:10;;;;;;;13.00;4.17;;;6.90;99.90;;;;;;5048013;28;20827;-82
2022/02/07 09:29:37;;;;;;;11.97;3.00;;;6.90;99.90;;;;;;5040839;28;20824;-84
2022/02/07 09:32:06;;;;;;;13.07;3.47;;;6.80;99.90;;;;;;5021088;28;20521;-83
2022/02/07 09:34:34;;;;;;;10.63;3.30;;;6.80;99.90;;;;;;5036719;28;20479;-83
2022/02/07 09:37:01;;;;;;;17.20;4.00;;;6.90;99.90;;;;;;5031376;28;21015;-84
2022/02/07 09:39:30;;;;;;;14.37;3.13;;;7.00;99.90;;;;;;5028260;28;20483;-84
2022/02/07 09:42:02;;;;;;;7.23;2.83;;;7.20;99.90;;;;;;5028503;28;20483;-83
2022/02/07 09:44:41;;;;;;;15.00;4.00;;;7.60;99.90;;;;;;5015179;28;20500;-84
2022/02/07 09:47:10;;;;;;;8.30;2.87;;;7.50;99.90;;;;;;5030148;28;20469;-83
2022/02/07 09:49:37;;;;;;;14.80;3.13;;;7.20;99.90;;;;;;5031509;28;20520;-84
2022/02/07 09:52:05;;;;;;;13.73;3.70;;;7.30;99.90;;;;;;5034886;28;20445;-85
2022/02/07 09:54:33;;;;;;;15.03;3.50;;;7.50;99.90;;;;;;5046849;28;20480;-83
2022/02/07 09:57:00;;;;;;;15.43;4.77;;;7.60;99.90;;;;;;5046656;28;20514;-83
2022/02/07 09:59:30;;;;;;;17.13;3.60;;;7.40;99.90;;;;;;5041355;28;20492;-83
2022/02/07 10:02:01;;;;;;;16.73;5.17;;;7.40;99.90;;;;;;5036313;28;20495;-84
2022/02/07 10:04:35;;;;;;;12.57;3.10;;;7.40;99.90;;;;;;5038704;28;20911;-84
2022/02/07 10:07:16;;;;;;;18.97;4.53;;;7.60;99.90;;;;;;5044430;28;20458;-82
2022/02/07 10:09:53;;;;;;;13.17;3.47;;;7.70;99.90;;;;;;5045598;28;20537;-83
2022/02/07 10:12:45;;;;;;;15.60;3.37;;;7.70;99.90;;;;;;5029684;28;20476;-83
2022/02/07 10:15:35;;;;;;;18.20;3.90;;;7.80;99.90;;;;;;5018845;28;20563;-83
2022/02/07 10:18:12;;;;;;;12.90;3.30;;;7.90;99.90;;;;;;5020249;28;20478;-84
2022/02/07 10:35:17;;;;;;;15.67;3.47;;;8.00;99.90;;;;;;5039270;28;20898;-84
2022/02/07 10:38:05;;;;;;;16.23;4.60;;;8.10;99.90;;;;;;5043212;28;20572;-83
2022/02/07 10:40:36;;;;;;;14.37;2.70;;;8.20;99.90;;;;;;5037488;28;20930;-83
2022/02/07 10:43:12;;;;;;;13.60;4.43;;;8.30;99.90;;;;;;5028252;28;20463;-84
2022/02/07 10:46:04;;;;;;;14.03;2.83;;;8.30;99.90;;;;;;5044116;28;20534;-83
2022/02/07 10:48:34;;;;;;;14.87;2.80;;;8.90;99.90;;;;;;5037209;28;20449;-82
2022/02/07 10:51:14;;;;;;;12.60;2.73;;;9.10;99.90;;;;;;5035292;28;20453;-83
2022/02/07 10:53:45;;;;;;;10.70;2.83;;;9.40;99.90;;;;;;5042069;28;20840;-84
2022/02/07 10:56:14;;;;;;;15.43;3.43;;;9.60;99.90;;;;;;5030569;28;20869;-83
2022/02/07 10:58:41;;;;;;;11.67;2.77;;;9.50;99.90;;;;;;5037683;28;20485;-84
2022/02/07 11:01:19;;;;;;;14.43;3.27;;;9.40;99.90;;;;;;5035866;28;20465;-83
2022/02/07 11:03:51;;;;;;;16.10;4.17;;;9.30;99.90;;;;;;5034902;28;20474;-82
2022/02/07 11:06:24;;;;;;;13.47;3.00;;;9.20;99.90;;;;;;5047594;28;20468;-81
2022/02/07 11:09:11;;;;;;;12.30;3.10;;;9.30;99.90;;;;;;5026356;28;20952;-81
2022/02/07 11:12:13;;;;;;;10.80;2.87;;;9.20;99.90;;;;;;5039402;28;20466;-84
2022/02/07 11:14:58;;;;;;;15.60;3.83;;;9.20;99.90;;;;;;5038973;28;20499;-82
2022/02/07 11:17:37;;;;;;;12.50;3.37;;;9.10;99.90;;;;;;5030505;28;20967;-82
2022/02/07 11:20:32;;;;;;;11.57;2.87;;;8.90;99.90;;;;;;5030357;28;20480;-83
2022/02/07 11:23:11;;;;;;;12.10;2.60;;;8.70;99.90;;;;;;5037599;28;20441;-83
2022/02/07 11:25:47;;;;;;;12.67;3.37;;;8.80;99.90;;;;;;5037703;28;20476;-83
2022/02/07 11:28:20;;;;;;;8.20;3.43;;;8.70;99.90;;;;;;5020259;28;20438;-83
2022/02/07 11:30:50;;;;;;;10.57;3.27;;;8.90;99.90;;;;;;5038835;28;20890;-82
2022/02/07 11:33:51;;;;;;;11.83;3.37;;;9.50;99.90;;;;;;5039901;28;20449;-84
2022/02/07 11:36:32;;;;;;;18.17;3.33;;;9.40;99.90;;;;;;5018978;28;20515;-83
2022/02/07 11:39:11;;;;;;;14.40;2.93;;;9.10;99.90;;;;;;5038560;28;20485;-85
2022/02/07 11:42:05;;;;;;;12.53;3.53;;;8.60;99.90;;;;;;5043053;28;20444;-85
2022/02/07 11:45:21;;;;;;;11.83;2.30;;;8.50;99.90;;;;;;5030803;28;20465;-84
2022/02/07 11:47:49;;;;;;;11.43;2.80;;;8.40;99.90;;;;;;5021560;28;20445;-84
2022/02/07 11:50:23;;;;;;;10.50;2.97;;;8.70;99.90;;;;;;5034295;28;20897;-83
2022/02/07 11:52:53;;;;;;;11.07;3.20;;;8.80;99.90;;;;;;5040456;28;20927;-82
2022/02/07 11:55:23;;;;;;;15.23;3.17;;;9.30;99.90;;;;;;5032894;28;20473;-83
2022/02/07 11:57:57;;;;;;;10.13;2.70;;;11.30;99.90;;;;;;5027268;28;20464;-81
2022/02/07 12:00:30;;;;;;;8.60;2.40;;;13.30;99.90;;;;;;5042246;28;20477;-83
2022/02/07 12:03:02;;;;;;;7.70;2.08;;;14.50;99.90;;;;;;5041861;28;20434;-81
2022/02/07 12:05:30;;;;;;;7.20;2.03;;;15.40;99.90;;;;;;5041634;28;20238;-81
2022/02/07 12:08:03;;;;;;;8.00;2.33;;;15.70;99.90;;;;;;5026713;28;20456;-83
2022/02/07 12:10:38;;;;;;;8.60;2.90;;;16.70;99.90;;;;;;5039324;28;20476;-86
2022/02/07 12:13:35;;;;;;;14.70;3.03;;;18.60;99.90;;;;;;5034215;28;20211;-84
2022/02/07 12:16:10;;;;;;;13.63;3.10;;;19.70;86.00;;;;;;5030266;28;20457;-83
2022/02/07 12:18:38;;;;;;;8.23;2.53;;;19.50;80.60;;;;;;5039788;28;20478;-83
2022/02/07 12:21:17;;;;;;;10.90;3.07;;;20.80;79.90;;;;;;5040361;28;20447;-83
2022/02/07 12:23:44;;;;;;;6.70;2.40;;;21.10;71.90;;;;;;5045226;28;20507;-82
2022/02/07 12:26:16;;;;;;;7.00;2.80;;;21.80;70.50;;;;;;5038008;28;20463;-84
2022/02/07 12:28:48;;;;;;;8.20;2.60;;;21.60;67.60;;;;;;5039416;28;20464;-83
2022/02/07 12:31:20;;;;;;;11.50;3.50;;;20.50;66.20;;;;;;5039755;28;20462;-84
2022/02/07 12:33:53;;;;;;;9.53;2.80;;;21.40;66.00;;;;;;5037896;28;20516;-83
2022/02/07 12:36:21;;;;;;;17.87;8.70;;;20.60;65.40;;;;;;5045857;28;20448;-83
2022/02/07 12:38:48;;;;;;;10.93;2.90;;;18.40;66.10;;;;;;5060250;28;20480;-83
2022/02/07 12:41:18;;;;;;;10.13;3.50;;;16.10;70.70;;;;;;5040154;28;20473;-84
2022/02/07 12:43:49;;;;;;;9.40;2.20;;;13.90;78.60;;;;;;5040388;28;20967;-84
2022/02/07 12:46:18;;;;;;;11.90;3.40;;;12.80;94.00;;;;;;5037749;28;20479;-83
2022/02/07 12:48:50;;;;;;;15.50;2.73;;;11.80;99.90;;;;;;5037853;28;21005;-83
2022/02/07 12:51:20;;;;;;;7.83;2.20;;;11.50;99.90;;;;;;5037280;28;20449;-82
2022/02/07 12:53:47;;;;;;;11.67;2.43;;;11.70;99.90;;;;;;5036344;28;20524;-83
2022/02/07 12:56:14;;;;;;;15.00;3.50;;;12.30;99.90;;;;;;5034073;28;20464;-83
2022/02/07 12:58:43;;;;;;;12.93;3.50;;;12.40;99.90;;;;;;5042035;28;20473;-84
2022/02/07 13:01:23;;;;;;;15.30;3.13;;;12.60;99.90;;;;;;5040789;28;20467;-83
2022/02/07 13:03:53;;;;;;;9.30;2.20;;;12.80;99.90;;;;;;5041434;28;20901;-83
2022/02/07 13:06:30;;;;;;;10.17;2.53;;;12.60;99.90;;;;;;5035297;28;20499;-82
2022/02/07 13:09:00;;;;;;;7.57;2.83;;;12.70;99.90;;;;;;5035226;28;20518;-82
2022/02/07 13:11:32;;;;;;;7.20;2.53;;;11.80;99.90;;;;;;5037769;28;20444;-83
2022/02/07 13:13:59;;;;;;;7.60;2.47;;;11.20;99.90;;;;;;5037682;28;20490;-84
2022/02/07 13:16:33;;;;;;;10.13;2.40;;;10.80;99.90;;;;;;5045749;28;20817;-84
2022/02/07 13:19:11;;;;;;;13.93;2.77;;;10.60;99.90;;;;;;5038697;28;20486;-82
2022/02/07 13:21:41;;;;;;;9.13;2.93;;;10.40;99.90;;;;;;5037827;28;20455;-83
2022/02/07 13:24:14;;;;;;;12.80;2.87;;;10.60;99.90;;;;;;5038637;28;20534;-83
2022/02/07 13:26:48;;;;;;;11.80;2.83;;;10.50;99.90;;;;;;5040314;28;20459;-82
2022/02/07 13:29:23;;;;;;;11.13;2.90;;;10.20;99.90;;;;;;5044047;28;20515;-81
2022/02/07 13:31:57;;;;;;;7.53;2.23;;;10.10;99.90;;;;;;5024973;28;20500;-83
2022/02/07 13:34:26;;;;;;;11.80;3.30;;;10.60;99.90;;;;;;5038797;28;20537;-83
2022/02/07 13:36:53;;;;;;;11.30;3.70;;;12.30;99.90;;;;;;5052856;28;20493;-84
2022/02/07 13:39:20;;;;;;;11.60;3.70;;;12.30;99.90;;;;;;5045518;28;20513;-82
2022/02/07 13:42:05;;;;;;;11.73;4.00;;;11.90;99.90;;;;;;5045174;28;20456;-83
2022/02/07 13:44:32;;;;;;;18.70;4.90;;;11.00;99.90;;;;;;5044084;28;20532;-81
2022/02/07 13:47:04;;;;;;;17.10;5.07;;;10.60;99.90;;;;;;5044921;28;20574;-82
2022/02/07 13:49:31;;;;;;;11.93;3.60;;;10.20;99.90;;;;;;5044519;28;20534;-82
2022/02/07 13:51:58;;;;;;;9.20;2.40;;;10.10;99.90;;;;;;5043670;28;20457;-83
2022/02/07 13:54:30;;;;;;;13.70;3.67;;;9.90;99.90;;;;;;5042825;28;20516;-81
2022/02/07 13:57:01;;;;;;;12.17;3.47;;;9.50;99.90;;;;;;5044433;28;20525;-83
2022/02/07 13:59:36;;;;;;;13.33;3.57;;;9.60;99.90;;;;;;5051594;28;20466;-83
2022/02/07 14:02:29;;;;;;;11.60;4.23;;;9.70;99.90;;;;;;5044712;28;20540;-82
2022/02/07 14:04:56;;;;;;;11.13;4.40;;;9.60;99.90;;;;;;5041010;28;20454;-83
2022/02/07 14:07:24;;;;;;;8.33;3.30;;;9.60;99.90;;;;;;5044926;28;20900;-83
2022/02/07 14:09:52;;;;;;;15.13;3.23;;;9.60;99.90;;;;;;5046694;28;20898;-84
2022/02/07 14:12:19;;;;;;;11.93;3.77;;;9.40;99.90;;;;;;5044400;28;20461;-83
2022/02/07 14:14:45;;;;;;;9.10;4.10;;;9.40;99.90;;;;;;5046180;28;20472;-83
2022/02/07 14:17:14;;;;;;;12.50;3.10;;;8.90;99.90;;;;;;5050162;28;21164;-84
2022/02/07 14:19:49;;;;;;;7.37;2.67;;;8.90;99.90;;;;;;5044675;28;20478;-82
2022/02/07 14:22:15;;;;;;;10.87;2.83;;;9.20;99.90;;;;;;5038511;28;20483;-84
2022/02/07 14:24:42;;;;;;;16.97;2.70;;;9.20;99.90;;;;;;5040470;28;20474;-82
2022/02/07 14:27:09;;;;;;;7.87;2.63;;;9.30;99.90;;;;;;5041024;28;20459;-83
2022/02/07 14:29:36;;;;;;;10.00;2.50;;;9.20;99.90;;;;;;5034287;28;20442;-83
2022/02/07 14:32:03;;;;;;;7.77;2.00;;;9.10;99.90;;;;;;5039082;28;20197;-83
2022/02/07 14:34:31;;;;;;;12.23;2.10;;;9.20;99.90;;;;;;5036735;28;20482;-82
2022/02/07 14:36:58;;;;;;;8.13;2.00;;;9.10;99.90;;;;;;5038926;28;20453;-83
2022/02/07 14:39:25;;;;;;;7.57;2.07;;;9.00;99.90;;;;;;5035766;28;20520;-83
2022/02/07 14:41:53;;;;;;;9.90;2.27;;;8.80;99.90;;;;;;5038172;28;20456;-83
2022/02/07 14:44:30;;;;;;;11.90;2.10;;;8.80;99.90;;;;;;5036894;28;21065;-83